createdAt,value
2022-08-17T00:01:35.765Z,99618.47
2022-08-17T00:04:18.623Z,99609.78
2022-08-17T00:06:45.925Z,99615.84
2022-08-17T00:09:18.851Z,99612.47
2022-08-17T00:12:35.081Z,99609.16
2022-08-17T00:14:36.462Z,99605.97
2022-08-17T00:17:05.742Z,99606.22
2022-08-17T00:19:32.934Z,99603.19
2022-08-17T00:22:33.564Z,99610.97
2022-08-17T00:24:48.229Z,99620.53
2022-08-17T00:27:15.357Z,99619.38
2022-08-17T00:29:42.616Z,99622.91
2022-08-17T00:33:12.188Z,99619.13
2022-08-17T00:34:59.393Z,99616.88
2022-08-17T00:37:27.066Z,99609.94
2022-08-17T00:39:54.367Z,99614.00
2022-08-17T00:42:21.662Z,99616.06
2022-08-17T00:44:49.248Z,99612.47
2022-08-17T00:47:17.760Z,99616.03
2022-08-17T00:49:44.983Z,99607.69
2022-08-17T00:52:16.341Z,99615.88
2022-08-17T00:54:47.124Z,99619.41
2022-08-17T00:57:18.293Z,99610.78
2022-08-17T00:59:51.145Z,99614.53
2022-08-17T01:02:42.362Z,99615.47
2022-08-17T01:05:15.345Z,99617.22
2022-08-17T01:07:43.540Z,99599.75
2022-08-17T01:10:58.996Z,99610.84
2022-08-17T01:13:01.505Z,99608.00
2022-08-17T01:15:30.030Z,99610.03
2022-08-17T01:17:58.742Z,99607.41
2022-08-17T01:20:26.509Z,99611.94
2022-08-17T01:22:55.182Z,99608.81
2022-08-17T01:25:22.935Z,99607.19
2022-08-17T01:27:50.473Z,99602.69
2022-08-17T01:30:58.777Z,99598.28
2022-08-17T01:33:05.617Z,99602.66
2022-08-17T01:35:32.868Z,99601.31
2022-08-17T01:38:01.662Z,99598.28
2022-08-17T01:40:33.738Z,99599.94
2022-08-17T01:43:05.991Z,99601.84
2022-08-17T01:45:42.782Z,99605.78
2022-08-17T01:48:11.039Z,99603.56
2022-08-17T01:50:41.166Z,99595.75
2022-08-17T01:53:13.637Z,99600.88
2022-08-17T01:55:45.429Z,99597.78
2022-08-17T01:58:15.037Z,99602.38
2022-08-17T02:00:59.654Z,99607.22
2022-08-17T02:03:29.814Z,99603.28
2022-08-17T02:05:57.487Z,99603.81
2022-08-17T02:08:37.123Z,99608.56
2022-08-17T02:11:12.266Z,99610.69
2022-08-17T02:13:39.509Z,99610.03
2022-08-17T02:16:06.701Z,99596.84
2022-08-17T02:18:34.353Z,99593.78
2022-08-17T02:21:01.616Z,99595.59
2022-08-17T02:23:34.567Z,99590.84
2022-08-17T02:26:02.422Z,99591.06
2022-08-17T02:28:29.970Z,99593.06
2022-08-17T02:31:00.886Z,99597.69
2022-08-17T02:33:42.427Z,99586.50
2022-08-17T02:36:13.007Z,99593.84
2022-08-17T02:38:43.706Z,99586.16
2022-08-17T02:41:10.902Z,99586.84
2022-08-17T02:43:38.216Z,99598.13
2022-08-17T02:46:05.813Z,99594.53
2022-08-17T02:48:33.154Z,99591.94
2022-08-17T02:51:01.044Z,99601.03
2022-08-17T02:53:33.657Z,99596.84
2022-08-17T02:56:05.038Z,99599.19
2022-08-17T02:58:35.313Z,99600.59
2022-08-17T03:01:04.871Z,99602.13
2022-08-17T03:03:32.254Z,99600.03
2022-08-17T03:05:59.911Z,99598.22
2022-08-17T03:08:27.461Z,99596.69
2022-08-17T03:10:54.700Z,99595.75
2022-08-17T03:13:23.747Z,99595.84
2022-08-17T03:15:51.508Z,99596.25
2022-08-17T03:18:24.455Z,99598.94
2022-08-17T03:20:53.506Z,99592.28
2022-08-17T03:23:23.837Z,99588.16
2022-08-17T03:25:53.825Z,99602.97
2022-08-17T03:28:23.543Z,99608.66
2022-08-17T03:30:50.850Z,99614.72
2022-08-17T03:33:18.860Z,99618.25
2022-08-17T03:35:47.035Z,99622.94
2022-08-17T03:38:15.229Z,99617.50
2022-08-17T03:40:58.481Z,99615.28
2022-08-17T03:43:31.445Z,99614.56
2022-08-17T03:45:59.330Z,99622.00
2022-08-17T03:48:26.625Z,99625.31
2022-08-17T03:50:54.264Z,99636.78
2022-08-17T03:53:21.498Z,99630.31
2022-08-17T03:55:48.710Z,99633.16
2022-08-17T03:58:16.171Z,99632.66
2022-08-17T04:00:44.783Z,99629.69
2022-08-17T04:03:12.234Z,99634.81
2022-08-17T04:05:39.862Z,99627.91
2022-08-17T04:08:07.641Z,99625.44
2022-08-17T04:10:38.448Z,99624.81
2022-08-17T04:13:13.141Z,99628.38
2022-08-17T04:15:40.449Z,99633.34
2022-08-17T04:18:11.100Z,99639.31
2022-08-17T04:20:38.697Z,99640.25
2022-08-17T04:23:10.128Z,99642.16
2022-08-17T04:25:39.542Z,99644.88
2022-08-17T04:28:07.608Z,99650.31
2022-08-17T04:30:44.379Z,99654.94
2022-08-17T04:33:15.358Z,99667.44
2022-08-17T04:35:44.837Z,99667.56
2022-08-17T04:38:14.256Z,99668.66
2022-08-17T04:40:42.461Z,99672.03
2022-08-17T04:43:12.344Z,99672.16
2022-08-17T04:45:41.053Z,99665.88
2022-08-17T04:48:27.897Z,99668.69
2022-08-17T04:51:05.693Z,99663.44
2022-08-17T04:53:32.979Z,99664.16
2022-08-17T04:56:00.266Z,99669.78
2022-08-17T04:58:28.068Z,99674.22
2022-08-17T05:00:55.308Z,99667.59
2022-08-17T05:03:24.066Z,99671.34
2022-08-17T05:05:51.896Z,99674.47
2022-08-17T05:08:20.948Z,99672.69
2022-08-17T05:10:48.984Z,99674.06
2022-08-17T05:13:19.259Z,99679.78
2022-08-17T05:15:49.290Z,99672.84
2022-08-17T05:18:17.375Z,99678.63
2022-08-17T05:20:46.491Z,99671.66
2022-08-17T05:23:16.537Z,99669.63
2022-08-17T05:25:47.586Z,99669.28
2022-08-17T05:28:16.425Z,99668.25
2022-08-17T05:30:44.865Z,99666.22
2022-08-17T05:33:19.066Z,99663.84
2022-08-17T05:35:52.697Z,99667.28
2022-08-17T05:38:21.823Z,99665.13
2022-08-17T05:40:49.218Z,99666.81
2022-08-17T05:43:19.470Z,99677.28
2022-08-17T05:45:56.905Z,99675.66
2022-08-17T05:48:36.768Z,99680.66
2022-08-17T05:51:47.184Z,99685.06
2022-08-17T05:54:27.122Z,99683.13
2022-08-17T05:57:24.861Z,99680.94
2022-08-17T06:00:00.703Z,99693.59
2022-08-17T06:02:47.058Z,99687.25
2022-08-17T06:05:35.084Z,99686.16
2022-08-17T06:08:12.577Z,99689.69
2022-08-17T06:10:47.108Z,99691.00
2022-08-17T06:13:20.507Z,99695.38
2022-08-17T06:15:57.535Z,99684.00
2022-08-17T06:18:29.351Z,99684.41
2022-08-17T06:20:58.900Z,99691.75
2022-08-17T06:23:34.553Z,99691.63
2022-08-17T06:26:06.075Z,99685.91
2022-08-17T06:28:40.865Z,99698.63
2022-08-17T06:31:15.061Z,99689.69
2022-08-17T06:33:42.855Z,99684.56
2022-08-17T06:36:23.749Z,99690.06
2022-08-17T06:39:03.360Z,99690.56
2022-08-17T06:41:41.471Z,99700.66
2022-08-17T06:44:50.302Z,99696.66
2022-08-17T06:47:07.282Z,99698.88
2022-08-17T06:49:46.235Z,99699.81
2022-08-17T06:52:46.906Z,99692.06
2022-08-17T06:55:18.728Z,99703.28
2022-08-17T06:57:50.022Z,99706.84
2022-08-17T07:00:21.258Z,99715.59
2022-08-17T07:02:56.788Z,99712.13
2022-08-17T07:05:30.779Z,99709.34
2022-08-17T07:08:05.138Z,99718.19
2022-08-17T07:10:41.122Z,99709.44
2022-08-17T07:13:26.397Z,99724.88
2022-08-17T07:16:01.236Z,99717.75
2022-08-17T07:18:31.156Z,99720.72
2022-08-17T07:21:06.759Z,99723.00
2022-08-17T07:23:52.471Z,99721.03
2022-08-17T07:26:23.592Z,99721.06
2022-08-17T07:28:51.675Z,99725.63
2022-08-17T07:31:25.286Z,99723.56
2022-08-17T07:34:16.354Z,99728.69
2022-08-17T07:37:08.478Z,99718.41
2022-08-17T07:39:59.601Z,99724.53
2022-08-17T07:42:44.914Z,99719.22
2022-08-17T07:45:22.414Z,99717.03
2022-08-17T07:47:50.987Z,99719.53
2022-08-17T07:50:37.597Z,99726.66
2022-08-17T07:53:17.990Z,99724.69
2022-08-17T07:55:55.399Z,99725.03
2022-08-17T07:58:46.437Z,99728.31
2022-08-17T08:01:26.660Z,99732.50
2022-08-17T08:04:58.998Z,99727.91
2022-08-17T08:07:28.500Z,99732.84
2022-08-17T08:10:13.281Z,99732.50
2022-08-17T08:13:08.716Z,99734.97
2022-08-17T08:15:53.750Z,99731.66
2022-08-17T08:18:54.498Z,99735.72
2022-08-17T08:21:27.622Z,99740.78
2022-08-17T08:24:01.130Z,99730.59
2022-08-17T08:26:37.167Z,99732.09
2022-08-17T08:29:14.944Z,99740.88
2022-08-17T08:31:57.809Z,99746.06
2022-08-17T08:34:53.256Z,99742.94
2022-08-17T08:37:35.532Z,99742.38
2022-08-17T08:40:13.726Z,99746.78
2022-08-17T08:42:50.906Z,99740.75
2022-08-17T08:45:24.849Z,99736.41
2022-08-17T08:48:12.815Z,99734.34
2022-08-17T08:51:06.584Z,99728.66
2022-08-17T08:53:45.020Z,99717.47
2022-08-17T08:56:31.179Z,99726.75
2022-08-17T08:59:10.514Z,99717.31
2022-08-17T09:01:54.395Z,99713.94
2022-08-17T09:05:12.743Z,99714.06
2022-08-17T09:07:56.248Z,99722.44
2022-08-17T09:10:42.966Z,99721.97
2022-08-17T09:13:26.038Z,99723.34
2022-08-17T09:16:11.159Z,99728.56
2022-08-17T09:19:02.377Z,99723.09
2022-08-17T09:21:48.569Z,99722.41
2022-08-17T09:24:24.232Z,99721.28
2022-08-17T09:26:59.106Z,99720.28
2022-08-17T09:29:30.631Z,99720.38
2022-08-17T09:32:03.512Z,99714.16
2022-08-17T09:34:41.038Z,99719.13
2022-08-17T09:37:20.734Z,99715.16
2022-08-17T09:39:56.704Z,99712.50
2022-08-17T09:42:29.798Z,99720.81
2022-08-17T09:45:07.780Z,99719.31
2022-08-17T09:47:41.157Z,99721.56
2022-08-17T09:50:13.582Z,99721.97
2022-08-17T09:52:43.029Z,99733.13
2022-08-17T09:55:10.687Z,99727.03
2022-08-17T09:57:51.016Z,99719.88
2022-08-17T10:00:22.613Z,99714.94
2022-08-17T10:03:11.482Z,99711.38
2022-08-17T10:05:45.507Z,99709.84
2022-08-17T10:08:24.505Z,99713.94
2022-08-17T10:11:04.956Z,99717.06
2022-08-17T10:13:40.306Z,99721.59
2022-08-17T10:16:29.300Z,99731.13
2022-08-17T10:19:13.006Z,99730.81
2022-08-17T10:21:44.100Z,99731.91
2022-08-17T10:24:17.701Z,99730.88
2022-08-17T10:26:56.469Z,99724.53
2022-08-17T10:29:29.008Z,99729.56
2022-08-17T10:32:00.019Z,99732.59
2022-08-17T10:34:51.308Z,99725.09
2022-08-17T10:37:40.938Z,99719.91
2022-08-17T10:40:32.943Z,99718.34
2022-08-17T10:43:15.105Z,99721.72
2022-08-17T10:45:48.550Z,99723.63
2022-08-17T10:48:38.113Z,99725.03
2022-08-17T10:51:08.709Z,99727.25
2022-08-17T10:53:59.080Z,99737.97
2022-08-17T10:56:58.104Z,99731.44
2022-08-17T10:59:53.545Z,99730.25
2022-08-17T11:02:27.664Z,99722.06
2022-08-17T11:05:08.700Z,99723.34
2022-08-17T11:08:07.392Z,99709.53
2022-08-17T11:10:53.457Z,99712.22
2022-08-17T11:13:34.742Z,99709.22
2022-08-17T11:16:34.519Z,99707.06
2022-08-17T11:19:31.229Z,99708.31
2022-08-17T11:22:33.507Z,99698.94
2022-08-17T11:25:14.809Z,99701.78
2022-08-17T11:27:44.074Z,99695.31
2022-08-17T11:30:17.389Z,99691.59
2022-08-17T11:32:53.076Z,99702.59
2022-08-17T11:35:38.028Z,99694.13
2022-08-17T11:38:16.677Z,99699.88
2022-08-17T11:41:07.943Z,99706.00
2022-08-17T11:44:10.838Z,99684.78
2022-08-17T11:46:55.976Z,99685.19
2022-08-17T11:49:45.387Z,99674.97
2022-08-17T11:52:38.496Z,99680.03
2022-08-17T11:55:31.904Z,99681.84
2022-08-17T11:57:58.494Z,99679.72
2022-08-17T12:00:53.818Z,99671.44
2022-08-17T12:03:54.310Z,99670.03
2022-08-17T12:06:40.018Z,99672.31
2022-08-17T12:09:14.096Z,99676.19
2022-08-17T12:11:55.529Z,99680.25
2022-08-17T12:15:08.370Z,99684.16
2022-08-17T12:17:25.940Z,99685.34
2022-08-17T12:20:15.178Z,99678.00
2022-08-17T12:22:51.538Z,99675.44
2022-08-17T12:25:24.459Z,99675.50
2022-08-17T12:28:06.648Z,99682.13
2022-08-17T12:30:35.208Z,99681.38
2022-08-17T12:33:02.747Z,99673.41
2022-08-17T12:35:35.347Z,99679.00
2022-08-17T12:38:06.834Z,99679.94
2022-08-17T12:40:57.936Z,99677.47
2022-08-17T12:43:27.959Z,99684.06
2022-08-17T12:45:57.409Z,99675.13
2022-08-17T12:48:26.931Z,99673.53
2022-08-17T12:51:01.698Z,99668.94
2022-08-17T12:53:33.431Z,99674.31
2022-08-17T12:56:06.921Z,99664.47
2022-08-17T12:58:38.303Z,99672.00
2022-08-17T13:01:08.783Z,99663.81
2022-08-17T13:03:39.352Z,99661.31
2022-08-17T13:06:11.421Z,99659.16
2022-08-17T13:08:43.853Z,99663.53
2022-08-17T13:11:19.808Z,99652.66
2022-08-17T13:13:49.245Z,99650.69
2022-08-17T13:16:19.560Z,99650.00
2022-08-17T13:18:49.038Z,99654.25
2022-08-17T13:21:26.237Z,99649.25
2022-08-17T13:23:56.476Z,99649.13
2022-08-17T13:26:29.377Z,99652.88
2022-08-17T13:28:57.439Z,99649.22
2022-08-17T13:31:44.057Z,99651.06
2022-08-17T13:34:34.895Z,99642.34
2022-08-17T13:37:25.249Z,99642.81
2022-08-17T13:39:56.184Z,99648.94
2022-08-17T13:42:32.646Z,99650.66
2022-08-17T13:45:01.198Z,99643.97
2022-08-17T13:47:28.705Z,99649.34
2022-08-17T13:49:56.140Z,99652.47
2022-08-17T13:52:38.172Z,99640.81
2022-08-17T13:55:19.733Z,99635.03
2022-08-17T13:57:49.963Z,99637.34
2022-08-17T14:00:33.588Z,99642.53
2022-08-17T14:03:04.226Z,99630.59
2022-08-17T14:05:32.120Z,99636.34
2022-08-17T14:08:07.098Z,99626.09
2022-08-17T14:10:36.832Z,99623.28
2022-08-17T14:13:04.836Z,99623.44
2022-08-17T14:15:53.976Z,99626.00
2022-08-17T14:18:55.313Z,99628.53
2022-08-17T14:21:07.559Z,99624.72
2022-08-17T14:23:37.517Z,99625.06
2022-08-17T14:26:05.191Z,99629.94
2022-08-17T14:28:32.526Z,99625.53
2022-08-17T14:31:00.490Z,99624.56
2022-08-17T14:33:28.354Z,99629.16
2022-08-17T14:35:55.715Z,99626.72
2022-08-17T14:38:23.373Z,99629.56
2022-08-17T14:40:52.293Z,99630.63
2022-08-17T14:43:19.675Z,99630.00
2022-08-17T14:45:47.721Z,99625.94
2022-08-17T14:48:15.130Z,99625.66
2022-08-17T14:50:43.705Z,99620.16
2022-08-17T14:53:14.252Z,99620.66
2022-08-17T14:55:41.365Z,99622.50
2022-08-17T14:58:10.008Z,99627.19
2022-08-17T15:00:38.389Z,99619.50
2022-08-17T15:03:05.603Z,99617.59
2022-08-17T15:05:36.066Z,99621.91
2022-08-17T15:08:05.132Z,99627.56
2022-08-17T15:10:33.142Z,99623.63
2022-08-17T15:13:00.631Z,99627.47
2022-08-17T15:15:29.830Z,99624.81
2022-08-17T15:17:58.614Z,99623.56
2022-08-17T15:20:28.802Z,99629.38
2022-08-17T15:22:56.993Z,99620.41
2022-08-17T15:25:25.848Z,99620.88
2022-08-17T15:27:53.448Z,99629.28
2022-08-17T15:30:21.464Z,99627.00
2022-08-17T15:32:54.423Z,99617.50
2022-08-17T15:35:28.169Z,99626.78
2022-08-17T15:37:58.616Z,99623.44
2022-08-17T15:40:26.029Z,99624.25
2022-08-17T15:42:53.609Z,99632.34
2022-08-17T15:45:23.979Z,99636.34
2022-08-17T15:47:55.734Z,99626.28
2022-08-17T15:50:23.036Z,99623.47
2022-08-17T15:52:56.589Z,99631.69
2022-08-17T15:55:24.896Z,99626.81
2022-08-17T15:57:52.424Z,99633.03
2022-08-17T16:00:20.443Z,99634.81
2022-08-17T16:03:14.084Z,99631.09
2022-08-17T16:05:36.947Z,99633.28
2022-08-17T16:08:04.874Z,99631.16
2022-08-17T16:10:35.588Z,99629.59
2022-08-17T16:13:04.316Z,99628.13
2022-08-17T16:15:32.239Z,99637.81
2022-08-17T16:18:01.691Z,99624.94
2022-08-17T16:20:29.014Z,99625.06
2022-08-17T16:22:58.215Z,99632.63
2022-08-17T16:25:52.182Z,99623.31
2022-08-17T16:28:16.927Z,99632.53
2022-08-17T16:31:03.339Z,99627.41
2022-08-17T16:33:30.934Z,99634.50
2022-08-17T16:35:58.395Z,99630.91
2022-08-17T16:38:27.071Z,99629.47
2022-08-17T16:40:54.768Z,99634.47
2022-08-17T16:43:37.205Z,99635.91
2022-08-17T16:46:29.435Z,99624.03
2022-08-17T16:49:37.319Z,99635.78
2022-08-17T16:52:08.347Z,99630.16
2022-08-17T16:54:39.648Z,99626.06
2022-08-17T17:01:20.224Z,99626.09
2022-08-17T17:08:14.994Z,99625.28
2022-08-17T17:11:22.790Z,99620.66
2022-08-17T17:17:56.487Z,99615.16
2022-08-17T17:20:40.545Z,99616.78
2022-08-17T17:23:19.941Z,99619.38
2022-08-17T17:26:01.679Z,99621.09
2022-08-17T17:28:44.065Z,99620.56
2022-08-17T17:31:15.676Z,99621.88
2022-08-17T17:33:49.088Z,99618.09
2022-08-17T17:36:24.944Z,99616.47
2022-08-17T17:39:03.944Z,99610.69
2022-08-17T17:41:44.273Z,99614.06
2022-08-17T17:44:19.745Z,99615.25
2022-08-17T17:47:17.196Z,99613.63
2022-08-17T17:54:05.795Z,99620.56
2022-08-17T17:57:32.322Z,99619.69
2022-08-17T18:00:10.313Z,99617.84
2022-08-17T18:02:51.207Z,99619.69
2022-08-17T18:05:34.480Z,99622.13
2022-08-17T18:08:14.415Z,99620.03
2022-08-17T18:10:50.354Z,99625.03
2022-08-17T18:13:27.315Z,99626.84
2022-08-17T18:15:56.683Z,99634.84
2022-08-17T18:18:32.725Z,99630.66
2022-08-17T18:21:03.037Z,99629.72
2022-08-17T18:23:31.001Z,99636.97
2022-08-17T18:25:59.059Z,99638.44
2022-08-17T18:28:29.235Z,99638.00
2022-08-17T18:31:11.507Z,99636.88
2022-08-17T18:33:40.855Z,99639.34
2022-08-17T18:36:09.147Z,99634.19
2022-08-17T18:38:38.706Z,99634.44
2022-08-17T18:41:19.264Z,99624.22
2022-08-17T18:44:00.950Z,99629.25
2022-08-17T18:46:32.608Z,99631.91
2022-08-17T18:49:02.171Z,99637.75
2022-08-17T18:51:41.482Z,99638.91
2022-08-17T18:54:17.494Z,99633.03
2022-08-17T18:56:50.258Z,99638.59
2022-08-17T18:59:31.865Z,99641.16
2022-08-17T19:02:38.703Z,99637.75
2022-08-17T19:05:17.261Z,99642.25
2022-08-17T19:07:46.780Z,99637.03
2022-08-17T19:10:23.259Z,99648.78
2022-08-17T19:12:55.536Z,99652.41
2022-08-17T19:15:34.415Z,99652.56
2022-08-17T19:18:14.702Z,99656.28
2022-08-17T19:20:47.650Z,99656.31
2022-08-17T19:23:21.535Z,99660.41
2022-08-17T19:25:50.928Z,99669.19
2022-08-17T19:28:27.610Z,99663.91
2022-08-17T19:30:57.735Z,99663.31
2022-08-17T19:33:27.178Z,99669.44
2022-08-17T19:36:05.050Z,99669.19
2022-08-17T19:38:44.660Z,99673.16
2022-08-17T19:41:19.260Z,99678.81
2022-08-17T19:43:56.842Z,99679.22
2022-08-17T19:46:35.729Z,99672.25
2022-08-17T19:49:11.775Z,99689.00
2022-08-17T19:51:46.709Z,99679.50
2022-08-17T19:54:35.019Z,99674.19
2022-08-17T19:57:07.202Z,99680.06
2022-08-17T19:59:46.397Z,99687.97
2022-08-17T20:02:24.001Z,99679.16
2022-08-17T20:04:56.626Z,99667.06
2022-08-17T20:07:28.880Z,99668.00
2022-08-17T20:10:02.477Z,99675.44
2022-08-17T20:12:34.159Z,99668.00
2022-08-17T20:15:06.855Z,99671.03
2022-08-17T20:17:37.795Z,99666.91
2022-08-17T20:20:22.033Z,99664.44
2022-08-17T20:22:57.432Z,99666.09
2022-08-17T20:25:31.346Z,99662.78
2022-08-17T20:28:06.361Z,99668.56
2022-08-17T20:30:37.773Z,99673.81
2022-08-17T20:33:06.686Z,99663.88
2022-08-17T20:35:38.216Z,99666.63
2022-08-17T20:38:08.819Z,99666.91
2022-08-17T20:40:39.240Z,99659.25
2022-08-17T20:43:43.251Z,99652.63
2022-08-17T20:46:23.735Z,99655.94
2022-08-17T20:48:56.182Z,99648.25
2022-08-17T20:51:29.938Z,99646.59
2022-08-17T20:54:34.117Z,99657.22
2022-08-17T20:57:01.770Z,99654.50
2022-08-17T21:00:09.243Z,99646.59
2022-08-17T21:02:36.551Z,99644.41
2022-08-17T21:05:30.102Z,99634.50
2022-08-17T21:08:11.328Z,99646.31
2022-08-17T21:10:40.425Z,99641.09
2022-08-17T21:13:36.470Z,99641.59
2022-08-17T21:16:21.970Z,99648.75
2022-08-17T21:18:55.682Z,99640.47
2022-08-17T21:21:30.064Z,99648.97
2022-08-17T21:24:20.973Z,99650.91
2022-08-17T21:26:58.407Z,99650.88
2022-08-17T21:29:30.926Z,99660.69
2022-08-17T21:32:19.039Z,99663.59
2022-08-17T21:35:24.575Z,99666.06
2022-08-17T21:37:56.390Z,99657.56
2022-08-17T21:40:27.811Z,99667.56
2022-08-17T21:42:57.625Z,99666.13
2022-08-17T21:45:29.146Z,99669.72
2022-08-17T21:48:10.326Z,99662.13
2022-08-17T21:50:38.328Z,99660.25
2022-08-17T21:53:06.153Z,99667.09
2022-08-17T21:55:39.428Z,99662.94
2022-08-17T21:58:23.198Z,99660.72
2022-08-17T22:01:13.127Z,99663.75
2022-08-17T22:03:41.259Z,99684.31
2022-08-17T22:06:23.920Z,99673.59
2022-08-17T22:09:00.310Z,99673.34
2022-08-17T22:11:29.053Z,99673.00
2022-08-17T22:14:05.510Z,99677.88
2022-08-17T22:16:33.278Z,99678.94
2022-08-17T22:19:00.980Z,99687.72
2022-08-17T22:21:28.370Z,99688.84
2022-08-17T22:24:01.910Z,99686.56
2022-08-17T22:27:05.943Z,99690.91
2022-08-17T22:29:57.905Z,99689.00
2022-08-17T22:32:35.791Z,99683.13
2022-08-17T22:35:34.572Z,99690.31
2022-08-17T22:38:28.468Z,99696.03
2022-08-17T22:41:12.618Z,99690.91
2022-08-17T22:43:44.830Z,99696.28
2022-08-17T22:46:12.802Z,99701.34
2022-08-17T22:48:48.260Z,99708.19
2022-08-17T22:51:20.532Z,99693.81
2022-08-17T22:53:53.621Z,99699.56
2022-08-17T22:56:25.157Z,99702.56
2022-08-17T22:58:59.112Z,99701.00
2022-08-17T23:01:29.312Z,99713.88
2022-08-17T23:03:58.489Z,99720.94
2022-08-17T23:06:25.782Z,99709.00
2022-08-17T23:08:54.001Z,99709.88
2022-08-17T23:11:22.060Z,99713.31
2022-08-17T23:14:12.053Z,99715.94
2022-08-17T23:16:40.750Z,99714.13
2022-08-17T23:19:08.314Z,99709.88
2022-08-17T23:21:37.225Z,99711.53
2022-08-17T23:24:05.844Z,99704.78
2022-08-17T23:26:35.952Z,99705.00
2022-08-17T23:29:04.069Z,99705.75
2022-08-17T23:31:33.926Z,99702.31
2022-08-17T23:34:01.597Z,99703.22
2022-08-17T23:36:29.287Z,99704.75
2022-08-17T23:38:56.492Z,99706.50
2022-08-17T23:41:24.256Z,99696.53
2022-08-17T23:43:53.108Z,99696.72
2022-08-17T23:46:20.351Z,99702.97
2022-08-17T23:48:48.946Z,99709.25
2022-08-17T23:51:21.107Z,99708.47
2022-08-17T23:53:53.553Z,99704.59
2022-08-17T23:56:21.619Z,99695.97
2022-08-17T23:58:51.399Z,99702.28
